Time;durP1;ratioP1;P1;durP2;ratioP2;P2;SDS_P1;SDS_P2;PMS_P1;PMS_P2;Temp;Humidity;BMP_temperature;BMP_pressure;BME280_temperature;BME280_humidity;BME280_pressure;Samples;Min_cycle;Max_cycle;Signal;HPM_P1;HPM_P2
2021/06/30 00:00:45;;;;;;;1.10;1.00;;;24.20;56.30;;;;;;6310831;28;20029;-70
2021/06/30 00:03:45;;;;;;;1.27;1.10;;;24.20;56.30;;;;;;6236790;28;20478;-70
2021/06/30 00:06:46;;;;;;;1.70;1.00;;;24.20;56.30;;;;;;6234164;28;20037;-70
2021/06/30 00:09:47;;;;;;;1.65;1.10;;;24.20;56.30;;;;;;6236567;28;20481;-70
2021/06/30 00:12:47;;;;;;;0.98;0.93;;;24.20;56.30;;;;;;6236167;28;20026;-70
2021/06/30 00:15:48;;;;;;;0.95;0.82;;;24.20;56.30;;;;;;6236691;28;20030;-70
2021/06/30 00:18:48;;;;;;;1.38;0.90;;;24.20;56.30;;;;;;6279336;28;20035;-70
2021/06/30 00:21:49;;;;;;;1.00;0.90;;;24.20;56.40;;;;;;6285054;28;20482;-70
2021/06/30 00:24:49;;;;;;;0.80;0.77;;;24.20;56.30;;;;;;6334389;28;20012;-70
2021/06/30 00:27:50;;;;;;;1.10;1.00;;;24.20;56.40;;;;;;6235471;28;20026;-70
2021/06/30 00:30:51;;;;;;;1.17;1.00;;;24.20;56.30;;;;;;6236369;28;20033;-70
2021/06/30 00:33:51;;;;;;;1.35;1.05;;;24.20;56.30;;;;;;6271408;28;20024;-70
2021/06/30 00:36:52;;;;;;;1.23;1.10;;;24.20;56.40;;;;;;6292087;28;20099;-70
2021/06/30 00:39:53;;;;;;;1.02;0.93;;;24.20;56.40;;;;;;6289502;28;20039;-70
2021/06/30 00:42:53;;;;;;;1.35;1.25;;;24.20;56.30;;;;;;6259604;28;20123;-70
2021/06/30 00:45:54;;;;;;;1.10;0.90;;;24.20;56.40;;;;;;6234855;28;20025;-70
2021/06/30 00:48:55;;;;;;;1.15;1.05;;;24.20;56.40;;;;;;6236438;28;20484;-69
2021/06/30 00:51:55;;;;;;;1.10;1.00;;;24.20;56.30;;;;;;6275488;28;20031;-70
2021/06/30 00:54:56;;;;;;;1.00;0.90;;;24.20;56.40;;;;;;6247807;28;20065;-70
2021/06/30 00:57:57;;;;;;;1.00;0.90;;;24.20;56.40;;;;;;6266748;28;20040;-70
2021/06/30 01:00:58;;;;;;;1.00;0.80;;;24.20;56.40;;;;;;6327609;28;20038;-70
2021/06/30 01:03:59;;;;;;;1.10;1.00;;;24.20;56.40;;;;;;6258636;28;20028;-70
2021/06/30 01:06:59;;;;;;;1.10;1.00;;;24.20;56.40;;;;;;6232205;28;20025;-70
2021/06/30 01:10:00;;;;;;;1.00;0.90;;;24.20;56.40;;;;;;6235745;28;20324;-70
2021/06/30 01:13:03;;;;;;;1.10;1.00;;;24.20;57.00;;;;;;6240442;28;20018;-70
2021/06/30 01:16:04;;;;;;;0.98;0.88;;;24.20;56.40;;;;;;6235983;28;20640;-70
2021/06/30 01:19:05;;;;;;;1.00;0.90;;;24.20;56.40;;;;;;6246217;28;20318;-70
2021/06/30 01:22:06;;;;;;;1.48;1.00;;;24.20;56.40;;;;;;6315987;28;20241;-70
2021/06/30 01:25:07;;;;;;;1.08;0.98;;;24.20;56.40;;;;;;6235345;28;20021;-70
2021/06/30 01:28:08;;;;;;;1.10;1.00;;;24.20;56.40;;;;;;6254042;28;20464;-70
2021/06/30 01:31:09;;;;;;;0.80;0.80;;;24.20;56.40;;;;;;6263296;28;20028;-70
2021/06/30 01:34:13;;;;;;;1.15;0.90;;;24.20;56.40;;;;;;6237634;28;20033;-69
2021/06/30 01:37:14;;;;;;;1.40;1.08;;;24.20;56.40;;;;;;6321858;28;20125;-70
2021/06/30 01:40:15;;;;;;;1.45;1.00;;;24.20;56.40;;;;;;6296061;28;20418;-70
2021/06/30 01:43:16;;;;;;;0.63;0.63;;;24.20;56.40;;;;;;6233622;28;20026;-70
2021/06/30 01:46:17;;;;;;;1.50;1.00;;;24.20;56.40;;;;;;6234071;28;20534;-70
2021/06/30 01:49:18;;;;;;;1.73;0.90;;;24.20;56.40;;;;;;6224778;28;20507;-70
2021/06/30 01:52:18;;;;;;;1.08;0.98;;;24.20;56.40;;;;;;6327245;28;20102;-70
2021/06/30 01:55:19;;;;;;;1.00;0.90;;;24.20;56.40;;;;;;6201946;28;20082;-71
2021/06/30 01:58:21;;;;;;;0.93;0.90;;;24.20;56.40;;;;;;6276704;28;20061;-70
2021/06/30 02:01:23;;;;;;;1.08;0.90;;;24.20;56.40;;;;;;6305736;28;20114;-70
2021/06/30 02:04:23;;;;;;;1.20;1.10;;;24.20;56.50;;;;;;6258678;28;20041;-70
2021/06/30 02:07:24;;;;;;;1.40;0.95;;;24.20;56.40;;;;;;6215549;28;20037;-70
2021/06/30 02:10:25;;;;;;;1.10;1.00;;;24.20;56.40;;;;;;6309543;28;20022;-70
2021/06/30 02:13:26;;;;;;;1.58;1.00;;;24.20;56.40;;;;;;6199152;28;20032;-70
2021/06/30 02:16:27;;;;;;;1.00;0.90;;;24.20;56.40;;;;;;6282904;28;20368;-70
2021/06/30 02:19:27;;;;;;;1.17;1.08;;;24.20;56.40;;;;;;6302987;28;20036;-70
2021/06/30 02:22:28;;;;;;;1.48;1.10;;;24.20;56.40;;;;;;6250431;28;20377;-70
2021/06/30 02:25:30;;;;;;;1.10;1.00;;;24.20;56.40;;;;;;6235156;28;20390;-70
2021/06/30 02:28:31;;;;;;;1.13;1.02;;;24.20;56.50;;;;;;6218052;28;20022;-70
2021/06/30 02:31:32;;;;;;;1.13;1.02;;;24.20;56.40;;;;;;6282467;28;20019;-70
2021/06/30 02:34:33;;;;;;;1.10;1.00;;;24.20;56.40;;;;;;6283312;28;20094;-70
2021/06/30 02:37:33;;;;;;;0.90;0.80;;;24.20;56.40;;;;;;6316386;28;20020;-70
2021/06/30 02:40:34;;;;;;;0.90;0.80;;;24.20;56.50;;;;;;6326288;28;20024;-70
2021/06/30 02:43:35;;;;;;;1.10;0.85;;;24.20;56.40;;;;;;6233668;28;20021;-70
2021/06/30 02:46:35;;;;;;;1.00;0.90;;;24.20;56.40;;;;;;6233910;28;20329;-70
2021/06/30 02:49:36;;;;;;;0.98;0.90;;;24.20;56.40;;;;;;6221991;28;20060;-70
2021/06/30 02:52:37;;;;;;;1.10;1.00;;;24.20;56.40;;;;;;6261327;28;20057;-70
2021/06/30 02:55:38;;;;;;;2.08;0.90;;;24.20;56.40;;;;;;6230685;28;20739;-70
2021/06/30 02:58:38;;;;;;;1.05;0.95;;;24.20;56.40;;;;;;6237784;28;20030;-70
2021/06/30 03:01:39;;;;;;;1.13;1.00;;;24.20;56.40;;;;;;6273558;28;20016;-70
2021/06/30 03:04:39;;;;;;;1.10;1.00;;;24.20;56.40;;;;;;6299709;28;20025;-70
2021/06/30 03:07:40;;;;;;;1.10;0.98;;;24.20;56.40;;;;;;6287252;28;20059;-70
2021/06/30 03:10:41;;;;;;;0.95;0.80;;;24.20;56.40;;;;;;6340499;28;20066;-70
2021/06/30 03:13:42;;;;;;;1.55;1.17;;;24.20;56.40;;;;;;6248621;28;20429;-70
2021/06/30 03:16:43;;;;;;;0.82;0.80;;;24.20;56.40;;;;;;6236140;28;20529;-70
2021/06/30 03:19:43;;;;;;;1.10;1.00;;;24.20;56.40;;;;;;6254851;28;20142;-70
2021/06/30 03:22:44;;;;;;;0.95;0.90;;;24.20;56.40;;;;;;6300526;28;20024;-70
2021/06/30 03:25:45;;;;;;;1.25;1.05;;;24.20;56.40;;;;;;6287898;28;20500;-70
2021/06/30 03:28:45;;;;;;;1.00;0.90;;;24.20;56.40;;;;;;6323566;28;20307;-70
2021/06/30 03:31:46;;;;;;;1.15;1.05;;;24.20;56.40;;;;;;6272110;28;20020;-70
2021/06/30 03:34:47;;;;;;;1.17;1.08;;;24.20;56.50;;;;;;6340526;28;20031;-70
2021/06/30 03:37:47;;;;;;;1.15;1.05;;;24.20;56.40;;;;;;6282199;28;20121;-70
2021/06/30 03:40:48;;;;;;;1.27;1.00;;;24.20;56.40;;;;;;6256846;28;20047;-70
2021/06/30 03:43:48;;;;;;;1.10;0.90;;;24.20;56.50;;;;;;6316393;28;20271;-70
2021/06/30 03:46:50;;;;;;;1.20;1.10;;;24.20;56.50;;;;;;6332370;28;20027;-70
2021/06/30 03:49:51;;;;;;;0.98;0.88;;;24.20;56.50;;;;;;6217606;28;20034;-70
2021/06/30 03:52:51;;;;;;;1.52;1.13;;;24.20;56.50;;;;;;6254814;28;20073;-70
2021/06/30 03:55:52;;;;;;;0.95;0.88;;;24.20;56.50;;;;;;6246089;28;20096;-70
2021/06/30 03:58:55;;;;;;;1.17;1.00;;;24.20;56.40;;;;;;6266475;28;20021;-70
2021/06/30 04:01:56;;;;;;;0.73;0.73;;;24.20;56.50;;;;;;6223767;28;20026;-70
2021/06/30 04:04:56;;;;;;;1.15;1.00;;;24.20;56.50;;;;;;6326971;28;20408;-70
2021/06/30 04:07:57;;;;;;;1.00;0.90;;;24.20;56.50;;;;;;6303163;28;20472;-70
2021/06/30 04:10:57;;;;;;;0.90;0.90;;;24.20;56.50;;;;;;6236567;28;20447;-70
2021/06/30 04:13:58;;;;;;;1.20;1.10;;;24.20;56.50;;;;;;6319690;28;20152;-70
2021/06/30 04:16:59;;;;;;;1.30;1.20;;;24.20;56.50;;;;;;6338890;28;20060;-70
2021/06/30 04:19:59;;;;;;;0.85;0.85;;;24.20;56.50;;;;;;6301068;28;20030;-70
2021/06/30 04:23:00;;;;;;;0.90;0.90;;;24.20;56.50;;;;;;6242435;28;20025;-70
2021/06/30 04:26:01;;;;;;;0.90;0.90;;;24.20;56.50;;;;;;6235105;28;20321;-70
2021/06/30 04:29:03;;;;;;;0.82;0.82;;;24.20;56.50;;;;;;6226486;28;20077;-70
2021/06/30 04:32:05;;;;;;;1.02;0.90;;;24.20;56.50;;;;;;6236105;28;20321;-70
2021/06/30 04:35:07;;;;;;;1.08;0.98;;;24.20;56.50;;;;;;6235884;28;20045;-70
2021/06/30 04:38:07;;;;;;;1.40;1.00;;;24.20;56.50;;;;;;6235809;28;20026;-70
2021/06/30 04:41:09;;;;;;;1.13;1.02;;;24.20;56.50;;;;;;6236074;28;20057;-70
2021/06/30 04:44:10;;;;;;;1.20;1.00;;;24.20;56.50;;;;;;6293958;28;20047;-70
2021/06/30 04:47:10;;;;;;;1.00;0.90;;;24.20;56.50;;;;;;6294219;28;20056;-70
2021/06/30 04:50:12;;;;;;;1.10;1.00;;;24.20;56.50;;;;;;6238278;28;20029;-70
2021/06/30 04:53:13;;;;;;;0.98;0.88;;;24.20;56.50;;;;;;6227044;28;20072;-71
2021/06/30 04:56:14;;;;;;;1.33;0.82;;;24.20;56.50;;;;;;6249466;28;20133;-71
2021/06/30 04:59:14;;;;;;;1.15;1.05;;;24.20;56.50;;;;;;6283156;28;20033;-71
2021/06/30 05:02:15;;;;;;;1.10;1.00;;;24.20;56.50;;;;;;6220125;28;20057;-72
2021/06/30 05:05:16;;;;;;;1.63;1.10;;;24.20;56.50;;;;;;6317622;28;20027;-70
2021/06/30 05:08:17;;;;;;;1.10;1.00;;;24.20;56.50;;;;;;6261396;28;20211;-71
2021/06/30 05:11:18;;;;;;;1.17;1.08;;;24.20;56.50;;;;;;6278255;28;20023;-71
2021/06/30 05:14:19;;;;;;;1.30;1.10;;;24.20;56.50;;;;;;6279812;28;20514;-70
2021/06/30 05:17:21;;;;;;;1.00;0.90;;;24.20;56.50;;;;;;6332533;28;20036;-71
2021/06/30 05:20:22;;;;;;;1.15;0.93;;;24.20;56.50;;;;;;6235574;28;20511;-70
2021/06/30 05:23:22;;;;;;;1.60;1.10;;;24.20;56.50;;;;;;6242171;28;20029;-70
2021/06/30 05:26:23;;;;;;;1.33;1.10;;;24.20;56.50;;;;;;6339366;28;20099;-70
2021/06/30 05:29:24;;;;;;;1.23;1.13;;;24.20;56.50;;;;;;6277531;28;20404;-70
2021/06/30 05:32:24;;;;;;;1.50;1.00;;;24.20;56.50;;;;;;6310073;28;20045;-71
2021/06/30 05:35:25;;;;;;;1.15;0.95;;;24.20;56.50;;;;;;6242794;28;20078;-71
2021/06/30 05:38:25;;;;;;;1.35;1.00;;;24.20;56.50;;;;;;6233500;28;20070;-71
2021/06/30 05:41:26;;;;;;;0.90;0.82;;;24.20;56.50;;;;;;6234821;28;20616;-71
2021/06/30 05:44:27;;;;;;;1.15;1.05;;;24.20;56.50;;;;;;6267955;28;20464;-72
2021/06/30 05:47:27;;;;;;;1.10;1.00;;;24.20;56.50;;;;;;6317506;28;20022;-71
2021/06/30 05:50:28;;;;;;;1.23;0.90;;;24.20;56.50;;;;;;6261286;28;20026;-68
2021/06/30 05:53:28;;;;;;;4.78;1.70;;;24.20;56.50;;;;;;6310765;28;20543;-68
2021/06/30 05:56:29;;;;;;;3.60;1.70;;;24.20;57.70;;;;;;6231330;28;20399;-70
2021/06/30 05:59:30;;;;;;;6.35;2.60;;;24.10;59.70;;;;;;6241079;28;20381;-71
2021/06/30 06:02:31;;;;;;;6.45;4.43;;;24.00;60.60;;;;;;6223228;28;20400;-71
2021/06/30 06:05:31;;;;;;;8.15;4.03;;;24.00;61.40;;;;;;6254523;28;20488;-71
2021/06/30 06:08:32;;;;;;;6.15;4.30;;;24.00;62.10;;;;;;6251415;28;20034;-71
2021/06/30 06:11:33;;;;;;;7.15;3.97;;;24.00;62.40;;;;;;6245546;28;20025;-72
2021/06/30 06:14:35;;;;;;;7.93;4.15;;;24.00;62.80;;;;;;6245381;28;20023;-71
2021/06/30 06:17:37;;;;;;;7.72;3.33;;;24.00;62.90;;;;;;6223222;28;20501;-71
2021/06/30 06:20:37;;;;;;;7.00;4.00;;;23.90;62.80;;;;;;6244805;28;20026;-70
2021/06/30 06:23:38;;;;;;;5.22;3.72;;;23.90;62.90;;;;;;6231867;28;20198;-72
2021/06/30 06:26:39;;;;;;;5.90;4.00;;;23.90;63.00;;;;;;6296189;28;20055;-72
2021/06/30 06:29:39;;;;;;;6.75;3.92;;;23.90;63.30;;;;;;6265286;28;20030;-71
2021/06/30 06:32:40;;;;;;;6.28;4.38;;;23.90;63.10;;;;;;6230865;28;20122;-72
2021/06/30 06:35:42;;;;;;;7.22;4.32;;;23.90;63.50;;;;;;6242591;28;20064;-71
2021/06/30 06:38:45;;;;;;;7.72;4.63;;;23.90;62.50;;;;;;6232851;28;20029;-72
2021/06/30 06:41:47;;;;;;;5.65;3.83;;;24.00;61.90;;;;;;6231175;28;20026;-70
2021/06/30 06:44:47;;;;;;;5.93;3.65;;;24.00;60.90;;;;;;6231256;28;20053;-71
2021/06/30 06:47:48;;;;;;;5.63;3.42;;;24.10;60.60;;;;;;6227989;28;20026;-70
2021/06/30 06:50:49;;;;;;;4.18;3.22;;;24.10;60.00;;;;;;6224064;28;20037;-71
2021/06/30 06:53:49;;;;;;;3.78;2.70;;;24.10;59.70;;;;;;6221931;28;20116;-71
2021/06/30 06:56:50;;;;;;;4.05;2.70;;;24.10;59.50;;;;;;6247464;28;20090;-70
2021/06/30 06:59:51;;;;;;;6.45;3.22;;;24.20;59.40;;;;;;6226378;28;20026;-71
2021/06/30 07:02:51;;;;;;;3.30;2.50;;;24.10;59.20;;;;;;6230676;28;20026;-71
2021/06/30 07:05:52;;;;;;;5.90;3.28;;;24.10;59.10;;;;;;6265927;28;20018;-71
2021/06/30 07:08:53;;;;;;;4.05;3.03;;;24.20;59.00;;;;;;6234903;28;20033;-71
2021/06/30 07:11:53;;;;;;;3.80;2.60;;;24.10;58.80;;;;;;6234393;28;20025;-72
2021/06/30 07:14:55;;;;;;;4.07;2.53;;;24.20;58.70;;;;;;6239239;28;20483;-71
2021/06/30 07:17:56;;;;;;;3.42;2.65;;;24.20;58.70;;;;;;6233358;28;20538;-72
2021/06/30 07:20:56;;;;;;;3.22;2.60;;;24.20;58.60;;;;;;6220593;28;20130;-71
2021/06/30 07:23:57;;;;;;;3.47;2.40;;;24.20;58.50;;;;;;6225367;28;20113;-72
2021/06/30 07:26:58;;;;;;;3.95;2.60;;;24.20;58.50;;;;;;6226267;28;20108;-73
2021/06/30 07:29:58;;;;;;;4.30;2.50;;;24.20;58.40;;;;;;6230202;28;20033;-73
2021/06/30 07:33:00;;;;;;;3.08;2.25;;;24.20;58.30;;;;;;6227921;28;20053;-69
2021/06/30 07:36:01;;;;;;;3.33;2.35;;;24.20;58.30;;;;;;6227978;28;20051;-68
2021/06/30 07:39:01;;;;;;;3.67;2.53;;;24.20;58.20;;;;;;6231321;28;20413;-69
2021/06/30 07:42:02;;;;;;;5.13;2.67;;;24.20;58.20;;;;;;6221280;28;20056;-67
2021/06/30 07:45:04;;;;;;;3.88;2.55;;;24.20;58.20;;;;;;6221539;28;20026;-68
2021/06/30 07:48:05;;;;;;;3.30;2.50;;;24.20;58.20;;;;;;6224466;28;20051;-68
2021/06/30 07:51:06;;;;;;;3.35;2.25;;;24.20;58.20;;;;;;6232123;28;20030;-68
2021/06/30 07:54:06;;;;;;;2.40;2.08;;;24.20;58.20;;;;;;6216177;28;20050;-68
2021/06/30 07:57:07;;;;;;;3.10;2.20;;;24.20;58.10;;;;;;6225871;28;20029;-68
2021/06/30 08:00:09;;;;;;;3.50;2.45;;;24.20;58.10;;;;;;6259393;28;20049;-68
2021/06/30 08:03:09;;;;;;;3.03;2.25;;;24.20;58.00;;;;;;6223242;28;20026;-68
2021/06/30 08:06:10;;;;;;;2.58;2.35;;;24.20;58.00;;;;;;6217220;28;20034;-68
2021/06/30 08:09:11;;;;;;;3.38;2.20;;;24.20;58.00;;;;;;6215001;28;20022;-69
2021/06/30 08:12:11;;;;;;;2.15;1.70;;;24.20;58.00;;;;;;6257979;28;20018;-67
2021/06/30 08:15:12;;;;;;;2.78;2.03;;;24.20;57.90;;;;;;6224255;28;20029;-68
2021/06/30 08:18:14;;;;;;;2.67;2.08;;;24.20;58.00;;;;;;6247794;28;20023;-68
2021/06/30 08:21:16;;;;;;;2.65;1.77;;;24.20;57.90;;;;;;6228075;28;20078;-69
2021/06/30 08:24:17;;;;;;;2.30;1.95;;;24.20;57.90;;;;;;6239723;28;20021;-69
2021/06/30 08:27:20;;;;;;;2.28;2.08;;;24.20;57.90;;;;;;6225980;28;20390;-68
2021/06/30 08:30:21;;;;;;;2.80;1.95;;;24.20;57.80;;;;;;6226162;28;20022;-68
2021/06/30 08:33:22;;;;;;;2.45;1.98;;;24.20;57.80;;;;;;6230331;28;20048;-67
2021/06/30 08:36:23;;;;;;;2.17;1.98;;;24.20;57.80;;;;;;6226570;28;20029;-68
2021/06/30 08:39:23;;;;;;;3.70;2.20;;;24.20;57.80;;;;;;6222668;28;20100;-68
2021/06/30 08:42:24;;;;;;;1.88;1.73;;;24.20;57.80;;;;;;6243755;28;20427;-68
2021/06/30 08:45:25;;;;;;;2.97;2.08;;;24.20;57.80;;;;;;6225317;28;20032;-68
2021/06/30 08:48:29;;;;;;;2.13;1.65;;;24.20;57.70;;;;;;6221254;28;20029;-68
2021/06/30 08:51:31;;;;;;;2.08;1.60;;;24.20;57.70;;;;;;6224162;28;20406;-68
2021/06/30 08:54:32;;;;;;;2.75;1.80;;;24.20;57.70;;;;;;6248120;28;20056;-68
2021/06/30 08:57:34;;;;;;;2.42;1.80;;;24.20;57.70;;;;;;6235988;28;20057;-68
2021/06/30 09:00:34;;;;;;;1.90;1.75;;;24.20;57.70;;;;;;6222864;28;20022;-68
2021/06/30 09:03:43;;;;;;;1.77;1.52;;;24.20;57.70;;;;;;6226180;28;20049;-69
2021/06/30 09:06:44;;;;;;;2.03;1.60;;;24.20;57.60;;;;;;6228038;28;20010;-68
2021/06/30 09:09:45;;;;;;;1.58;1.48;;;24.20;57.70;;;;;;6248361;28;20082;-68
2021/06/30 09:12:45;;;;;;;2.47;1.48;;;24.20;57.70;;;;;;6224723;28;20034;-68
2021/06/30 09:15:55;;;;;;;2.08;1.88;;;24.20;57.60;;;;;;6228732;28;20025;-68
2021/06/30 09:18:55;;;;;;;2.03;1.60;;;24.20;57.60;;;;;;6230805;28;20041;-68
2021/06/30 09:21:59;;;;;;;1.90;1.60;;;24.20;57.60;;;;;;6222799;28;20030;-68
2021/06/30 09:25:00;;;;;;;1.50;1.40;;;24.20;57.60;;;;;;6216586;28;20436;-68
2021/06/30 09:28:15;;;;;;;2.33;1.60;;;24.20;57.60;;;;;;6221302;28;20099;-68
2021/06/30 09:31:16;;;;;;;;;;;24.20;57.60;;;;;;6245342;28;20521;-68
2021/06/30 09:34:28;;;;;;;1.92;1.50;;;24.20;57.50;;;;;;6223044;28;19909;-69
2021/06/30 09:37:28;;;;;;;2.35;1.55;;;24.20;57.50;;;;;;6213301;28;20049;-68
2021/06/30 09:40:43;;;;;;;1.73;1.48;;;24.20;57.50;;;;;;6229867;28;20032;-68
2021/06/30 09:43:44;;;;;;;1.83;1.40;;;24.20;57.50;;;;;;6224009;28;20363;-68
2021/06/30 09:46:46;;;;;;;1.73;1.48;;;24.20;57.60;;;;;;6230749;28;20037;-69
2021/06/30 09:49:55;;;;;;;2.40;1.52;;;24.20;57.50;;;;;;6225896;28;20151;-68
2021/06/30 09:52:55;;;;;;;2.10;1.55;;;24.20;57.50;;;;;;6219001;28;20050;-68
2021/06/30 09:57:02;;;;;;;2.15;1.63;;;24.20;57.50;;;;;;6243398;28;20113;-68
2021/06/30 09:59:54;;;;;;;1.83;1.48;;;24.20;57.50;;;;;;6230362;28;20499;-67
2021/06/30 10:02:56;;;;;;;2.22;1.45;;;24.20;57.50;;;;;;6237440;28;20099;-68
2021/06/30 10:05:56;;;;;;;1.88;1.52;;;24.20;57.50;;;;;;6246244;28;20282;-68
2021/06/30 10:08:59;;;;;;;1.40;1.30;;;24.20;57.50;;;;;;6261948;28;20048;-67
2021/06/30 10:12:07;;;;;;;1.73;1.45;;;24.20;57.50;;;;;;6239044;28;20113;-68
2021/06/30 10:15:08;;;;;;;1.98;1.25;;;24.20;57.50;;;;;;6263204;28;20037;-67
2021/06/30 10:18:09;;;;;;;1.75;1.30;;;24.20;57.50;;;;;;6260458;28;20554;-68
2021/06/30 10:21:11;;;;;;;1.58;1.48;;;24.20;57.50;;;;;;6236649;28;20021;-68
2021/06/30 10:24:16;;;;;;;2.08;1.48;;;24.20;57.50;;;;;;6230477;28;20010;-68
2021/06/30 10:27:18;;;;;;;2.00;1.30;;;24.20;57.50;;;;;;6229791;28;20018;-68
2021/06/30 10:30:19;;;;;;;1.73;1.20;;;24.20;57.50;;;;;;6256604;28;20057;-68
2021/06/30 10:33:31;;;;;;;1.35;1.20;;;24.20;57.50;;;;;;6228943;28;20252;-68
2021/06/30 10:36:46;;;;;;;2.83;1.48;;;24.20;57.50;;;;;;6239320;28;20030;-68
2021/06/30 10:39:54;;;;;;;1.48;1.30;;;24.20;57.50;;;;;;6234947;28;20029;-70
2021/06/30 10:43:13;;;;;;;1.80;1.30;;;24.20;57.50;;;;;;6228615;28;20022;-70
2021/06/30 10:46:25;;;;;;;1.30;1.20;;;24.20;57.50;;;;;;6227003;28;20075;-68
2021/06/30 10:49:30;;;;;;;1.83;1.35;;;24.20;57.40;;;;;;6233378;28;20050;-68
2021/06/30 10:52:31;;;;;;;1.77;1.40;;;24.20;57.40;;;;;;6235467;28;20120;-68
2021/06/30 10:55:32;;;;;;;1.70;1.30;;;24.20;57.40;;;;;;6224867;28;20380;-68
2021/06/30 10:58:32;;;;;;;1.55;1.40;;;24.20;57.50;;;;;;6232293;28;20056;-68
2021/06/30 11:01:33;;;;;;;1.58;1.30;;;24.20;57.50;;;;;;6233023;28;20018;-68
2021/06/30 11:04:33;;;;;;;1.40;1.30;;;24.20;57.40;;;;;;6264133;28;20069;-67
2021/06/30 11:07:35;;;;;;;1.98;1.15;;;24.20;57.50;;;;;;6238418;28;20053;-68
2021/06/30 11:10:35;;;;;;;1.45;1.20;;;24.20;57.40;;;;;;6237106;28;20512;-68
2021/06/30 11:14:05;;;;;;;1.33;1.00;;;24.20;57.40;;;;;;6224810;28;20022;-68
2021/06/30 11:17:06;;;;;;;1.60;1.30;;;24.20;57.40;;;;;;6231775;28;20360;-68
2021/06/30 11:20:07;;;;;;;1.23;1.13;;;24.20;57.40;;;;;;6227327;28;20108;-68
2021/06/30 11:23:39;;;;;;;1.05;0.93;;;24.20;57.40;;;;;;6233157;28;20582;-68
2021/06/30 11:26:40;;;;;;;2.28;1.08;;;24.20;57.40;;;;;;6238862;28;20777;-68
2021/06/30 11:29:53;;;;;;;1.17;1.08;;;24.20;57.40;;;;;;6227869;28;20041;-69
2021/06/30 11:32:53;;;;;;;1.20;1.10;;;24.20;57.40;;;;;;6231222;28;20074;-69
2021/06/30 11:36:02;;;;;;;1.88;1.17;;;24.20;57.40;;;;;;6279627;28;20444;-69
2021/06/30 11:39:15;;;;;;;1.83;1.02;;;24.20;57.40;;;;;;6237036;28;20037;-69
2021/06/30 11:42:37;;;;;;;1.67;1.10;;;24.20;57.40;;;;;;6232006;28;20101;-68
2021/06/30 11:45:38;;;;;;;3.95;2.00;;;24.20;57.40;;;;;;6237968;28;20104;-69
2021/06/30 11:48:40;;;;;;;4.57;2.67;;;24.20;57.70;;;;;;6225286;28;20026;-70
2021/06/30 11:51:41;;;;;;;8.55;3.22;;;24.10;59.50;;;;;;6309507;28;20717;-68
2021/06/30 11:54:42;;;;;;;5.90;2.92;;;24.10;61.20;;;;;;6345280;28;20059;-68
2021/06/30 11:58:09;;;;;;;5.38;3.00;;;24.00;61.10;;;;;;6344441;28;20049;-68
2021/06/30 12:01:33;;;;;;;3.88;2.95;;;24.00;61.50;;;;;;6233485;28;20025;-71
2021/06/30 12:04:34;;;;;;;6.82;2.88;;;24.00;61.70;;;;;;6244531;28;20078;-67
2021/06/30 12:07:42;;;;;;;3.30;2.45;;;24.00;61.20;;;;;;6282234;28;20606;-68
2021/06/30 12:10:44;;;;;;;2.42;2.15;;;24.00;60.20;;;;;;6282286;28;20022;-68
2021/06/30 12:14:12;;;;;;;2.58;2.10;;;24.10;59.70;;;;;;6229078;28;20459;-68
2021/06/30 12:17:15;;;;;;;4.65;2.15;;;24.10;59.20;;;;;;6217241;28;20029;-68
2021/06/30 12:20:17;;;;;;;1.88;1.50;;;24.10;58.90;;;;;;6240506;28;20040;-67
2021/06/30 12:23:18;;;;;;;2.67;2.05;;;24.10;58.80;;;;;;6239883;28;20094;-68
2021/06/30 12:26:19;;;;;;;2.17;1.55;;;24.20;58.70;;;;;;6225157;28;20018;-67
2021/06/30 12:29:20;;;;;;;2.67;1.73;;;24.20;58.60;;;;;;6215139;28;20411;-67
2021/06/30 12:32:20;;;;;;;3.72;1.90;;;24.20;58.50;;;;;;6223194;28;20026;-72
2021/06/30 12:35:33;;;;;;;2.20;1.55;;;24.20;58.40;;;;;;6232351;28;20026;-67
2021/06/30 12:38:33;;;;;;;2.10;1.85;;;24.20;58.40;;;;;;6230048;28;20037;-67
2021/06/30 12:41:52;;;;;;;4.35;2.10;;;24.20;58.30;;;;;;6264469;28;20103;-68
2021/06/30 12:44:58;;;;;;;2.10;1.60;;;24.20;58.30;;;;;;6227421;28;20387;-67
2021/06/30 12:48:02;;;;;;;1.85;1.50;;;24.20;58.20;;;;;;6229168;28;20033;-67
2021/06/30 12:51:12;;;;;;;1.70;1.40;;;24.20;58.10;;;;;;6241213;28;20012;-67
2021/06/30 12:54:13;;;;;;;2.00;1.75;;;24.20;58.20;;;;;;6236082;27;20046;-67
2021/06/30 12:57:13;;;;;;;1.75;1.50;;;24.20;58.10;;;;;;6216571;28;20030;-67
2021/06/30 13:00:19;;;;;;;1.77;1.40;;;24.20;58.10;;;;;;6222675;28;20021;-67
2021/06/30 13:03:20;;;;;;;3.47;1.30;;;24.20;58.00;;;;;;6231873;28;20490;-67
2021/06/30 13:06:23;;;;;;;2.05;1.50;;;24.20;58.00;;;;;;6250566;28;20107;-66
2021/06/30 13:09:34;;;;;;;2.22;1.40;;;24.20;58.00;;;;;;6239586;28;20029;-67
2021/06/30 13:12:34;;;;;;;1.58;1.33;;;24.20;58.00;;;;;;6269301;28;20055;-67
2021/06/30 13:15:35;;;;;;;4.07;1.60;;;24.20;58.00;;;;;;6229859;28;20397;-67
2021/06/30 13:19:06;;;;;;;1.80;1.40;;;24.20;58.00;;;;;;6237398;28;20026;-67
2021/06/30 13:22:15;;;;;;;1.60;1.50;;;24.20;58.00;;;;;;6220677;28;20041;-67
2021/06/30 13:25:27;;;;;;;3.33;1.30;;;24.20;58.00;;;;;;6215074;28;20447;-67
2021/06/30 13:28:51;;;;;;;3.25;1.55;;;24.20;57.90;;;;;;6243535;28;20033;-66
2021/06/30 13:35:27;;;;;;;4.20;1.98;;;24.20;57.90;;;;;;6216175;28;20033;-66
2021/06/30 13:38:31;;;;;;;2.50;1.50;;;24.20;57.80;;;;;;6223395;28;20022;-67
2021/06/30 13:41:32;;;;;;;2.25;1.55;;;24.20;57.80;;;;;;6218732;28;20022;-67
2021/06/30 13:44:32;;;;;;;1.70;1.10;;;24.20;57.80;;;;;;6256516;28;20022;-67
2021/06/30 13:47:33;;;;;;;1.67;1.40;;;24.20;57.90;;;;;;6260203;28;20031;-67
2021/06/30 13:50:35;;;;;;;1.40;1.10;;;24.20;57.80;;;;;;6221628;28;20033;-67
2021/06/30 13:53:36;;;;;;;2.13;1.30;;;24.20;57.80;;;;;;6228310;28;20056;-67
2021/06/30 13:56:37;;;;;;;1.88;1.50;;;24.20;57.80;;;;;;6238080;28;20026;-67
2021/06/30 13:59:38;;;;;;;2.35;1.17;;;24.20;57.80;;;;;;6215521;28;20681;-67
2021/06/30 14:02:39;;;;;;;1.83;1.20;;;24.20;57.80;;;;;;6213112;28;20054;-67
2021/06/30 14:05:41;;;;;;;2.17;1.20;;;24.20;57.80;;;;;;6223337;28;20037;-67
2021/06/30 14:08:41;;;;;;;1.50;1.20;;;24.20;57.80;;;;;;6229954;28;20126;-67
2021/06/30 14:11:42;;;;;;;1.90;0.90;;;24.20;57.80;;;;;;6228005;28;20394;-67
2021/06/30 14:14:43;;;;;;;2.63;1.38;;;24.20;57.80;;;;;;6230295;28;20030;-67
2021/06/30 14:17:43;;;;;;;3.10;1.60;;;24.20;57.80;;;;;;6255758;28;20025;-67
2021/06/30 14:20:44;;;;;;;1.40;1.10;;;24.20;57.80;;;;;;6242142;28;20064;-67
2021/06/30 14:23:45;;;;;;;1.65;1.10;;;24.20;57.70;;;;;;6230384;28;20028;-67
2021/06/30 14:26:45;;;;;;;1.77;1.00;;;24.20;57.70;;;;;;6232264;28;20626;-67
2021/06/30 14:29:46;;;;;;;1.50;1.17;;;24.20;57.70;;;;;;6238787;28;20034;-67
2021/06/30 14:32:48;;;;;;;2.42;1.27;;;24.20;57.70;;;;;;6230969;28;20049;-67
2021/06/30 14:35:50;;;;;;;1.00;0.90;;;24.20;57.70;;;;;;6226419;28;20029;-67
2021/06/30 14:38:51;;;;;;;1.95;1.00;;;24.20;57.70;;;;;;6216393;28;20105;-67
2021/06/30 14:41:52;;;;;;;1.67;0.90;;;24.20;57.80;;;;;;6220648;28;20026;-68
2021/06/30 14:44:52;;;;;;;1.33;1.15;;;24.20;57.80;;;;;;6218738;28;20026;-70
2021/06/30 14:47:57;;;;;;;2.83;1.20;;;24.20;57.70;;;;;;6234202;28;20098;-72
2021/06/30 14:50:58;;;;;;;1.38;1.10;;;24.20;57.70;;;;;;6257938;28;20045;-71
2021/06/30 14:53:59;;;;;;;1.10;1.00;;;24.20;57.70;;;;;;6215569;28;20521;-69
2021/06/30 14:56:59;;;;;;;1.58;1.10;;;24.20;57.70;;;;;;6214956;28;20061;-72
2021/06/30 15:00:00;;;;;;;1.38;1.02;;;24.20;57.70;;;;;;6230103;28;20036;-71
2021/06/30 15:03:01;;;;;;;1.10;1.00;;;24.20;57.70;;;;;;6224527;28;21280;-69
2021/06/30 15:06:02;;;;;;;1.05;0.90;;;24.20;57.70;;;;;;6257580;28;20037;-71
2021/06/30 15:09:05;;;;;;;1.38;1.00;;;24.20;57.60;;;;;;6248095;28;20030;-69
2021/06/30 15:12:06;;;;;;;0.98;0.95;;;24.20;57.60;;;;;;6260501;28;20098;-71
2021/06/30 15:15:08;;;;;;;1.30;1.15;;;24.20;57.60;;;;;;6225823;28;20023;-71
2021/06/30 15:18:09;;;;;;;2.40;1.42;;;24.20;57.60;;;;;;6219769;28;20097;-70
2021/06/30 15:21:10;;;;;;;1.10;1.00;;;24.20;57.70;;;;;;6225353;28;20018;-71
2021/06/30 15:24:11;;;;;;;1.52;1.10;;;24.20;57.70;;;;;;6226369;28;20109;-72
2021/06/30 15:27:12;;;;;;;1.20;1.10;;;24.20;57.60;;;;;;6222674;28;20530;-72
2021/06/30 15:30:16;;;;;;;3.60;0.95;;;24.20;57.60;;;;;;6224277;28;20040;-72
2021/06/30 15:33:17;;;;;;;1.80;0.98;;;24.20;57.60;;;;;;6232101;28;20113;-71
2021/06/30 15:36:20;;;;;;;1.25;1.15;;;24.20;57.60;;;;;;6243636;28;20093;-71
2021/06/30 15:39:21;;;;;;;1.10;1.00;;;24.20;57.70;;;;;;6230195;28;20053;-69
2021/06/30 15:42:21;;;;;;;1.42;1.30;;;24.20;57.60;;;;;;6266069;28;20443;-72
2021/06/30 15:45:22;;;;;;;1.73;1.00;;;24.20;57.60;;;;;;6229334;28;20527;-71
2021/06/30 15:48:23;;;;;;;1.13;0.95;;;24.20;57.60;;;;;;6215110;28;20616;-71
2021/06/30 15:51:24;;;;;;;1.27;1.00;;;24.20;57.60;;;;;;6220845;28;20125;-71
2021/06/30 15:54:24;;;;;;;1.40;1.00;;;24.20;57.60;;;;;;6226388;28;20057;-72